Coroaci, Brazil
Current Conditions -  °F | °C
As of 4:00 PM on Wednesday 26 Nov 2014 (Local Time) from SBIP Reporting Station
Broken Clouds Broken Clouds  
Wind Chill: 86°   Ceiling: 6000
Heat Index: 86°   Visibility: 6mi
Dew Point: 57°   Wind: 12mph
Humidity: 37%   Direction: 50°NE
Pressure: 29.83"   Gusts: NA
Location:  18.62°S, 42.29°W
Report Text: SBIP 261800Z 05010KT 9999 SCT035 BKN060 30/14 Q1010
Loading
Personal Weather Stations






























Interactive Weather Map New forecast layout! Learn more

10-Day Weather Forecast

Advertisements
Track Severe Weather on mobile